ENHV/HVG METAR and TAF weather

Enter ICAO airport designator
Station Type Date Time Source
ENHV METAR 2019/02/23 12:20 UTC NOAA

ENHV 231220Z 29020KT 9999 SCT018 BKN027 04/01 Q1006


Station Type Date Time Source
ENHV Decoded METAR 2019/02/23 12:20 UTC NOAA

Honningsvag / Valan, Norway (ENHV) 71-01N 025-59E 14M
Feb 23, 2019 - 07:20 AM EST / 2019.02.23 1220 UTC
Wind: from the WNW (290 degrees) at 23 MPH (20 KT):0
Visibility: greater than 7 mile(s):0
Sky conditions: mostly cloudy
Temperature: 39 F (4 C)
Dew Point: 33 F (1 C)
Relative Humidity: 80%
Pressure (altimeter): 29.71 in. Hg (1006 hPa)
ob: ENHV 231220Z 29020KT 9999 SCT018 BKN027 04/01 Q1006
cycle: 12

Station Type Date Time Source
ENHV TAF UTC NOAA

Error!


Example: see airport list